createdAt,value
2022-10-25T00:03:54.715Z,100.00
2022-10-25T00:09:02.115Z,100.00
2022-10-25T00:14:09.935Z,100.00
2022-10-25T00:19:14.843Z,100.00
2022-10-25T00:24:22.292Z,100.00
2022-10-25T00:29:27.255Z,100.00
2022-10-25T00:34:32.139Z,100.00
2022-10-25T00:39:39.524Z,100.00
2022-10-25T00:44:55.908Z,100.00
2022-10-25T00:50:06.465Z,100.00
2022-10-25T00:55:17.154Z,100.00
2022-10-25T01:00:22.581Z,100.00
2022-10-25T01:05:27.331Z,100.00
2022-10-25T01:10:35.102Z,100.00
2022-10-25T01:15:49.265Z,100.00
2022-10-25T01:21:42.676Z,100.00
2022-10-25T01:27:12.991Z,100.00
2022-10-25T01:32:25.213Z,100.00
2022-10-25T01:37:37.878Z,100.00
2022-10-25T01:42:52.003Z,100.00
2022-10-25T01:48:05.699Z,100.00
2022-10-25T01:53:10.580Z,100.00
2022-10-25T01:58:28.194Z,100.00
2022-10-25T02:03:42.806Z,100.00
2022-10-25T02:08:51.021Z,100.00
2022-10-25T02:14:04.948Z,100.00
2022-10-25T02:19:15.821Z,100.00
2022-10-25T02:24:24.514Z,100.00
2022-10-25T02:29:32.501Z,100.00
2022-10-25T02:34:40.001Z,100.00
2022-10-25T02:39:45.207Z,100.00
2022-10-25T02:44:49.906Z,100.00
2022-10-25T02:49:57.273Z,100.00
2022-10-25T02:55:02.344Z,100.00
2022-10-25T03:00:08.941Z,100.00
2022-10-25T03:05:16.317Z,100.00
2022-10-25T03:10:21.388Z,100.00
2022-10-25T03:15:26.362Z,100.00
2022-10-25T03:20:34.236Z,100.00
2022-10-25T03:25:39.373Z,100.00
2022-10-25T03:30:45.635Z,100.00
2022-10-25T03:35:55.606Z,100.00
2022-10-25T03:41:00.394Z,100.00
2022-10-25T03:46:05.259Z,100.00
2022-10-25T03:51:12.605Z,100.00
2022-10-25T03:56:17.877Z,100.00
2022-10-25T04:01:23.152Z,100.00
2022-10-25T04:06:30.911Z,100.00
2022-10-25T04:11:35.835Z,100.00
2022-10-25T04:16:41.325Z,100.00
2022-10-25T04:21:49.018Z,100.00
2022-10-25T04:26:55.112Z,100.00
2022-10-25T04:31:59.982Z,100.00
2022-10-25T04:37:07.876Z,100.00
2022-10-25T04:42:13.241Z,100.00
2022-10-25T04:47:20.506Z,100.00
2022-10-25T04:52:28.004Z,100.00
2022-10-25T04:57:34.361Z,100.00
2022-10-25T05:02:39.221Z,100.00
2022-10-25T05:07:49.449Z,100.00
2022-10-25T05:12:56.918Z,100.00
2022-10-25T05:18:02.280Z,100.00
2022-10-25T05:23:11.718Z,100.00
2022-10-25T05:28:17.117Z,100.00
2022-10-25T05:33:22.029Z,100.00
2022-10-25T05:38:32.024Z,100.00
2022-10-25T05:43:39.972Z,100.00
2022-10-25T05:48:48.943Z,100.00
2022-10-25T05:53:59.026Z,100.00
2022-10-25T05:59:10.440Z,100.00
2022-10-25T06:04:16.092Z,100.00
2022-10-25T06:09:25.715Z,100.00
2022-10-25T06:14:30.446Z,100.00
2022-10-25T06:19:35.433Z,100.00
2022-10-25T06:24:42.959Z,100.00
2022-10-25T06:29:47.972Z,100.00
2022-10-25T06:34:53.092Z,100.00
2022-10-25T06:40:00.429Z,100.00
2022-10-25T06:45:05.343Z,100.00
2022-10-25T06:50:11.669Z,100.00
2022-10-25T06:55:22.324Z,100.00
2022-10-25T07:00:27.104Z,100.00
2022-10-25T07:05:32.059Z,100.00
2022-10-25T07:10:41.727Z,100.00
2022-10-25T07:15:46.642Z,100.00
2022-10-25T07:20:53.904Z,100.00
2022-10-25T07:26:02.130Z,100.00
2022-10-25T07:31:07.121Z,100.00
2022-10-25T07:36:12.469Z,100.00
2022-10-25T07:41:20.351Z,100.00
2022-10-25T07:46:26.321Z,100.00
2022-10-25T07:51:39.547Z,100.00
2022-10-25T07:56:46.971Z,100.00
2022-10-25T08:01:54.060Z,93.49
2022-10-25T08:07:02.090Z,86.19
2022-10-25T08:12:09.992Z,83.30
2022-10-25T08:17:16.595Z,82.23
2022-10-25T08:22:21.421Z,77.70
2022-10-25T08:27:29.044Z,72.91
2022-10-25T08:32:35.778Z,78.64
2022-10-25T08:37:40.788Z,80.17
2022-10-25T08:43:02.700Z,79.76
2022-10-25T08:48:14.550Z,71.97
2022-10-25T08:53:25.488Z,74.19
2022-10-25T08:58:47.047Z,74.35
2022-10-25T09:03:54.816Z,81.06
2022-10-25T09:09:13.657Z,84.41
2022-10-25T09:14:35.044Z,87.08
2022-10-25T09:19:47.777Z,85.52
2022-10-25T09:25:00.882Z,79.61
2022-10-25T09:30:11.535Z,81.35
2022-10-25T09:35:22.492Z,81.34
2022-10-25T09:40:32.734Z,87.50
2022-10-25T09:45:48.742Z,91.31
2022-10-25T09:50:59.782Z,91.99
2022-10-25T09:56:07.783Z,92.98
2022-10-25T10:01:19.736Z,92.48
2022-10-25T10:06:28.402Z,92.40
2022-10-25T10:11:35.155Z,92.73
2022-10-25T10:16:46.976Z,93.87
2022-10-25T10:21:54.513Z,93.84
2022-10-25T10:27:02.247Z,94.93
2022-10-25T10:32:27.163Z,95.81
2022-10-25T10:37:33.792Z,94.38
2022-10-25T10:42:41.442Z,95.90
2022-10-25T10:47:59.718Z,95.43
2022-10-25T10:53:11.063Z,95.73
2022-10-25T10:58:19.233Z,95.69
2022-10-25T11:03:59.151Z,95.60
2022-10-25T11:09:20.498Z,94.86
2022-10-25T11:14:27.614Z,95.84
2022-10-25T11:19:50.135Z,95.08
2022-10-25T11:25:10.016Z,95.94
2022-10-25T11:30:19.297Z,94.57
2022-10-25T11:35:41.212Z,94.11
2022-10-25T11:40:51.565Z,93.53
2022-10-25T11:46:02.474Z,89.60
2022-10-25T11:51:21.235Z,86.83
2022-10-25T11:56:41.187Z,87.28
2022-10-25T12:02:00.483Z,89.70
2022-10-25T12:07:16.186Z,89.13
2022-10-25T12:12:25.298Z,90.31
2022-10-25T12:17:33.219Z,90.60
2022-10-25T12:22:46.777Z,91.16
2022-10-25T12:27:57.521Z,90.82
2022-10-25T12:33:09.758Z,89.72
2022-10-25T12:38:25.143Z,85.68
2022-10-25T12:43:38.071Z,87.86
2022-10-25T12:49:16.807Z,86.77
2022-10-25T12:54:50.798Z,87.61
2022-10-25T13:00:07.275Z,89.55
2022-10-25T13:05:35.317Z,90.48
2022-10-25T13:10:46.728Z,86.94
2022-10-25T13:15:53.814Z,85.65
2022-10-25T13:20:58.832Z,87.39
2022-10-25T13:26:12.228Z,87.60
2022-10-25T13:31:46.666Z,87.01
2022-10-25T13:36:52.811Z,88.87
2022-10-25T13:42:05.378Z,87.51
2022-10-25T13:47:36.715Z,89.32
2022-10-25T13:52:48.558Z,90.65
2022-10-25T13:57:58.478Z,91.55
2022-10-25T14:03:25.918Z,92.87
2022-10-25T14:08:34.426Z,100.00
2022-10-25T14:13:51.331Z,100.00
2022-10-25T14:18:58.265Z,100.00
2022-10-25T14:24:10.358Z,100.00
2022-10-25T14:29:26.663Z,100.00
2022-10-25T14:34:32.505Z,100.00
2022-10-25T14:39:37.301Z,100.00
2022-10-25T14:44:52.299Z,100.00
2022-10-25T14:49:57.510Z,100.00
2022-10-25T14:55:07.305Z,100.00
2022-10-25T15:00:23.915Z,100.00
2022-10-25T15:05:28.915Z,100.00
2022-10-25T15:10:45.978Z,100.00
2022-10-25T15:15:54.380Z,100.00
2022-10-25T15:21:12.205Z,100.00
2022-10-25T15:26:28.011Z,100.00
2022-10-25T15:31:35.684Z,100.00
2022-10-25T15:36:42.299Z,100.00
2022-10-25T15:41:47.239Z,100.00
2022-10-25T15:46:54.811Z,100.00
2022-10-25T15:52:02.008Z,100.00
2022-10-25T15:57:07.337Z,100.00
2022-10-25T16:02:21.857Z,100.00
2022-10-25T16:07:27.776Z,100.00
2022-10-25T16:12:37.749Z,100.00
2022-10-25T16:17:47.967Z,100.00
2022-10-25T16:22:54.742Z,100.00
2022-10-25T16:27:59.563Z,100.00
2022-10-25T16:33:06.970Z,100.00
2022-10-25T16:38:12.158Z,100.00
2022-10-25T16:43:17.952Z,100.00
2022-10-25T16:48:26.468Z,100.00
2022-10-25T16:53:31.980Z,100.00
2022-10-25T16:58:37.018Z,100.00
2022-10-25T17:03:44.678Z,100.00
2022-10-25T17:08:50.328Z,100.00
2022-10-25T17:13:55.083Z,100.00
2022-10-25T17:19:03.318Z,100.00
2022-10-25T17:24:10.833Z,100.00
2022-10-25T17:29:15.613Z,100.00
2022-10-25T17:34:22.999Z,100.00
2022-10-25T17:39:28.096Z,100.00
2022-10-25T17:44:33.181Z,100.00
2022-10-25T17:49:40.689Z,100.00
2022-10-25T17:54:45.615Z,100.00
2022-10-25T17:59:50.544Z,100.00
2022-10-25T18:10:24.185Z,100.00
2022-10-25T18:15:29.950Z,100.00
2022-10-25T18:20:40.600Z,100.00
2022-10-25T18:25:53.601Z,100.00
2022-10-25T18:31:01.910Z,100.00
2022-10-25T18:36:15.054Z,100.00
2022-10-25T18:41:22.140Z,100.00
2022-10-25T18:46:32.053Z,100.00
2022-10-25T18:51:40.717Z,100.00
2022-10-25T18:56:48.675Z,100.00
2022-10-25T19:01:53.841Z,100.00
2022-10-25T19:07:04.292Z,100.00
2022-10-25T19:12:09.379Z,100.00
2022-10-25T19:17:14.293Z,100.00
2022-10-25T19:22:21.982Z,100.00
2022-10-25T19:27:29.071Z,100.00
2022-10-25T19:32:36.572Z,100.00
2022-10-25T19:37:44.757Z,100.00
2022-10-25T19:42:50.434Z,100.00
2022-10-25T19:47:57.148Z,100.00
2022-10-25T19:53:04.930Z,100.00
2022-10-25T19:58:10.546Z,100.00
2022-10-25T20:03:15.826Z,100.00
2022-10-25T20:08:23.936Z,100.00
2022-10-25T20:13:28.877Z,100.00
2022-10-25T20:18:35.956Z,100.00
2022-10-25T20:23:49.391Z,100.00
2022-10-25T20:28:55.792Z,100.00
2022-10-25T20:34:01.673Z,100.00
2022-10-25T20:39:09.192Z,100.00
2022-10-25T20:44:14.834Z,100.00
2022-10-25T20:49:19.753Z,100.00
2022-10-25T20:54:29.428Z,100.00
2022-10-25T20:59:34.409Z,100.00
2022-10-25T21:04:53.020Z,100.00
2022-10-25T21:10:01.469Z,100.00
2022-10-25T21:15:11.854Z,100.00
2022-10-25T21:20:17.600Z,100.00
2022-10-25T21:25:25.643Z,100.00
2022-10-25T21:30:30.538Z,100.00
2022-10-25T21:35:35.534Z,100.00
2022-10-25T21:40:43.311Z,100.00
2022-10-25T21:45:48.075Z,100.00
2022-10-25T21:50:58.625Z,100.00
2022-10-25T21:56:13.221Z,100.00
2022-10-25T22:01:19.843Z,100.00
2022-10-25T22:06:27.798Z,100.00
2022-10-25T22:11:37.476Z,100.00
2022-10-25T22:16:42.836Z,100.00
2022-10-25T22:21:48.002Z,100.00
2022-10-25T22:26:56.267Z,100.00
2022-10-25T22:32:01.096Z,100.00
2022-10-25T22:37:05.885Z,100.00
2022-10-25T22:42:14.121Z,100.00
2022-10-25T22:47:18.954Z,100.00
2022-10-25T22:52:23.976Z,100.00
2022-10-25T22:57:32.747Z,100.00
2022-10-25T23:02:37.489Z,100.00
2022-10-25T23:07:42.352Z,100.00
2022-10-25T23:12:51.952Z,100.00
2022-10-25T23:17:56.676Z,100.00
2022-10-25T23:23:01.380Z,100.00
2022-10-25T23:28:09.027Z,100.00
2022-10-25T23:33:15.523Z,100.00
2022-10-25T23:38:20.402Z,100.00
2022-10-25T23:43:27.796Z,100.00
2022-10-25T23:48:33.025Z,100.00
2022-10-25T23:53:38.204Z,100.00
2022-10-25T23:58:45.773Z,100.00
